sensor_id;sensor_type;location;lat;lon;timestamp;temperature;humidity
2539;DHT22;1280;49.760;9.664;2022-09-03T00:00:21;18.60;57.30
2539;DHT22;1280;49.760;9.664;2022-09-03T00:02:58;18.50;57.30
2539;DHT22;1280;49.760;9.664;2022-09-03T00:05:36;18.40;57.50
2539;DHT22;1280;49.760;9.664;2022-09-03T00:08:09;18.40;57.60
2539;DHT22;1280;49.760;9.664;2022-09-03T00:10:44;18.30;57.70
2539;DHT22;1280;49.760;9.664;2022-09-03T00:13:17;18.40;57.80
2539;DHT22;1280;49.760;9.664;2022-09-03T00:15:47;18.40;57.90
2539;DHT22;1280;49.760;9.664;2022-09-03T00:18:19;18.50;57.90
2539;DHT22;1280;49.760;9.664;2022-09-03T00:20:53;18.40;58.00
2539;DHT22;1280;49.760;9.664;2022-09-03T00:23:25;18.40;58.00
2539;DHT22;1280;49.760;9.664;2022-09-03T00:25:57;18.40;58.10
2539;DHT22;1280;49.760;9.664;2022-09-03T00:28:34;18.50;58.10
2539;DHT22;1280;49.760;9.664;2022-09-03T00:31:08;18.50;58.10
2539;DHT22;1280;49.760;9.664;2022-09-03T00:33:40;18.50;58.00
2539;DHT22;1280;49.760;9.664;2022-09-03T00:36:15;18.40;58.00
2539;DHT22;1280;49.760;9.664;2022-09-03T00:38:44;18.40;58.10
2539;DHT22;1280;49.760;9.664;2022-09-03T00:41:21;18.40;58.10
2539;DHT22;1280;49.760;9.664;2022-09-03T00:44:01;18.40;58.20
2539;DHT22;1280;49.760;9.664;2022-09-03T00:46:38;18.40;58.20
2539;DHT22;1280;49.760;9.664;2022-09-03T00:49:23;18.40;58.20
2539;DHT22;1280;49.760;9.664;2022-09-03T00:52:02;18.50;58.30
2539;DHT22;1280;49.760;9.664;2022-09-03T00:54:36;18.40;58.20
2539;DHT22;1280;49.760;9.664;2022-09-03T00:57:21;18.40;58.10
2539;DHT22;1280;49.760;9.664;2022-09-03T00:59:58;18.30;58.30
2539;DHT22;1280;49.760;9.664;2022-09-03T01:02:36;18.30;58.40
2539;DHT22;1280;49.760;9.664;2022-09-03T01:05:10;18.20;58.30
2539;DHT22;1280;49.760;9.664;2022-09-03T01:07:51;18.10;58.50
2539;DHT22;1280;49.760;9.664;2022-09-03T01:10:26;18.20;58.60
2539;DHT22;1280;49.760;9.664;2022-09-03T01:13:02;18.20;58.60
2539;DHT22;1280;49.760;9.664;2022-09-03T01:15:41;18.20;58.70
2539;DHT22;1280;49.760;9.664;2022-09-03T01:18:18;18.30;58.70
2539;DHT22;1280;49.760;9.664;2022-09-03T01:21:03;18.30;58.70
2539;DHT22;1280;49.760;9.664;2022-09-03T01:26:54;18.30;58.60
2539;DHT22;1280;49.760;9.664;2022-09-03T01:29:38;18.20;58.60
2539;DHT22;1280;49.760;9.664;2022-09-03T01:32:11;18.20;58.60
2539;DHT22;1280;49.760;9.664;2022-09-03T01:34:48;18.10;58.70
2539;DHT22;1280;49.760;9.664;2022-09-03T01:37:28;18.10;58.70
2539;DHT22;1280;49.760;9.664;2022-09-03T01:40:08;18.10;58.70
2539;DHT22;1280;49.760;9.664;2022-09-03T01:42:49;18.00;58.80
2539;DHT22;1280;49.760;9.664;2022-09-03T01:45:35;18.00;58.80
2539;DHT22;1280;49.760;9.664;2022-09-03T01:48:34;18.00;58.90
2539;DHT22;1280;49.760;9.664;2022-09-03T01:51:10;18.00;58.90
2539;DHT22;1280;49.760;9.664;2022-09-03T01:53:55;17.90;58.90
2539;DHT22;1280;49.760;9.664;2022-09-03T01:56:39;17.90;59.00
2539;DHT22;1280;49.760;9.664;2022-09-03T01:59:16;17.90;59.00
2539;DHT22;1280;49.760;9.664;2022-09-03T02:01:54;17.80;59.00
2539;DHT22;1280;49.760;9.664;2022-09-03T02:04:25;17.80;59.10
2539;DHT22;1280;49.760;9.664;2022-09-03T02:06:56;17.80;59.10
2539;DHT22;1280;49.760;9.664;2022-09-03T02:09:26;17.80;59.20
2539;DHT22;1280;49.760;9.664;2022-09-03T02:12:02;17.80;59.20
2539;DHT22;1280;49.760;9.664;2022-09-03T02:14:33;17.80;59.20
2539;DHT22;1280;49.760;9.664;2022-09-03T02:17:04;17.80;59.10
2539;DHT22;1280;49.760;9.664;2022-09-03T02:19:33;17.80;59.20
2539;DHT22;1280;49.760;9.664;2022-09-03T02:22:03;17.70;59.10
2539;DHT22;1280;49.760;9.664;2022-09-03T02:24:31;17.70;59.10
2539;DHT22;1280;49.760;9.664;2022-09-03T02:26:59;17.60;59.20
2539;DHT22;1280;49.760;9.664;2022-09-03T02:29:28;17.60;59.30
2539;DHT22;1280;49.760;9.664;2022-09-03T02:31:57;17.60;59.40
2539;DHT22;1280;49.760;9.664;2022-09-03T02:34:26;17.50;59.50
2539;DHT22;1280;49.760;9.664;2022-09-03T02:36:54;17.50;59.60
2539;DHT22;1280;49.760;9.664;2022-09-03T02:39:22;17.60;59.70
2539;DHT22;1280;49.760;9.664;2022-09-03T02:41:54;17.60;59.70
2539;DHT22;1280;49.760;9.664;2022-09-03T02:44:26;17.60;59.80
2539;DHT22;1280;49.760;9.664;2022-09-03T02:47:00;17.60;59.70
2539;DHT22;1280;49.760;9.664;2022-09-03T02:49:30;17.60;59.70
2539;DHT22;1280;49.760;9.664;2022-09-03T02:52:00;17.50;59.70
2539;DHT22;1280;49.760;9.664;2022-09-03T02:54:31;17.50;59.70
2539;DHT22;1280;49.760;9.664;2022-09-03T02:57:02;17.50;59.80
2539;DHT22;1280;49.760;9.664;2022-09-03T02:59:30;17.40;59.70
2539;DHT22;1280;49.760;9.664;2022-09-03T03:01:58;17.30;59.70
2539;DHT22;1280;49.760;9.664;2022-09-03T03:04:29;17.30;59.80
2539;DHT22;1280;49.760;9.664;2022-09-03T03:06:58;17.30;59.80
2539;DHT22;1280;49.760;9.664;2022-09-03T03:09:26;17.20;59.90
2539;DHT22;1280;49.760;9.664;2022-09-03T03:11:54;17.20;60.00
2539;DHT22;1280;49.760;9.664;2022-09-03T03:14:23;17.10;60.10
2539;DHT22;1280;49.760;9.664;2022-09-03T03:16:51;17.10;60.10
2539;DHT22;1280;49.760;9.664;2022-09-03T03:19:19;17.10;60.20
2539;DHT22;1280;49.760;9.664;2022-09-03T03:21:48;17.10;60.10
2539;DHT22;1280;49.760;9.664;2022-09-03T03:24:16;17.00;60.20
2539;DHT22;1280;49.760;9.664;2022-09-03T03:26:44;16.90;60.50
2539;DHT22;1280;49.760;9.664;2022-09-03T03:29:15;16.90;60.60
2539;DHT22;1280;49.760;9.664;2022-09-03T03:31:44;16.90;60.60
2539;DHT22;1280;49.760;9.664;2022-09-03T03:34:12;17.00;60.70
2539;DHT22;1280;49.760;9.664;2022-09-03T03:36:40;17.00;60.80
2539;DHT22;1280;49.760;9.664;2022-09-03T03:39:09;17.00;60.90
2539;DHT22;1280;49.760;9.664;2022-09-03T03:41:37;17.00;61.00
2539;DHT22;1280;49.760;9.664;2022-09-03T03:44:06;17.10;61.10
2539;DHT22;1280;49.760;9.664;2022-09-03T03:46:37;17.10;61.20
2539;DHT22;1280;49.760;9.664;2022-09-03T03:49:06;17.10;61.30
2539;DHT22;1280;49.760;9.664;2022-09-03T03:51:35;17.20;61.30
2539;DHT22;1280;49.760;9.664;2022-09-03T03:54:04;17.20;61.40
2539;DHT22;1280;49.760;9.664;2022-09-03T03:56:34;17.20;61.40
2539;DHT22;1280;49.760;9.664;2022-09-03T03:59:02;17.20;61.40
2539;DHT22;1280;49.760;9.664;2022-09-03T04:01:30;17.10;61.50
2539;DHT22;1280;49.760;9.664;2022-09-03T04:03:59;17.10;61.60
2539;DHT22;1280;49.760;9.664;2022-09-03T04:06:27;17.00;61.70
2539;DHT22;1280;49.760;9.664;2022-09-03T04:08:55;17.00;62.00
2539;DHT22;1280;49.760;9.664;2022-09-03T04:11:24;17.00;62.00
2539;DHT22;1280;49.760;9.664;2022-09-03T04:13:53;17.00;62.10
2539;DHT22;1280;49.760;9.664;2022-09-03T04:16:22;17.00;62.30
2539;DHT22;1280;49.760;9.664;2022-09-03T04:18:52;17.00;62.40
2539;DHT22;1280;49.760;9.664;2022-09-03T04:21:22;17.10;62.40
2539;DHT22;1280;49.760;9.664;2022-09-03T04:23:52;17.10;62.40
2539;DHT22;1280;49.760;9.664;2022-09-03T04:26:22;17.20;62.50
2539;DHT22;1280;49.760;9.664;2022-09-03T04:28:50;17.30;62.50
2539;DHT22;1280;49.760;9.664;2022-09-03T04:31:20;17.30;62.40
2539;DHT22;1280;49.760;9.664;2022-09-03T04:33:48;17.30;62.50
2539;DHT22;1280;49.760;9.664;2022-09-03T04:36:18;17.30;62.50
2539;DHT22;1280;49.760;9.664;2022-09-03T04:38:48;17.30;62.50
2539;DHT22;1280;49.760;9.664;2022-09-03T04:41:18;17.40;62.50
2539;DHT22;1280;49.760;9.664;2022-09-03T04:43:46;17.40;62.50
2539;DHT22;1280;49.760;9.664;2022-09-03T04:46:18;17.40;62.50
2539;DHT22;1280;49.760;9.664;2022-09-03T04:48:49;17.40;62.50
2539;DHT22;1280;49.760;9.664;2022-09-03T04:51:19;17.50;62.50
2539;DHT22;1280;49.760;9.664;2022-09-03T04:53:52;17.50;62.50
2539;DHT22;1280;49.760;9.664;2022-09-03T04:56:22;17.50;62.50
2539;DHT22;1280;49.760;9.664;2022-09-03T04:58:54;17.50;62.50
2539;DHT22;1280;49.760;9.664;2022-09-03T05:01:24;17.50;62.50
2539;DHT22;1280;49.760;9.664;2022-09-03T05:03:54;17.60;62.50
2539;DHT22;1280;49.760;9.664;2022-09-03T05:06:24;17.50;62.40
2539;DHT22;1280;49.760;9.664;2022-09-03T05:08:53;17.50;62.40
2539;DHT22;1280;49.760;9.664;2022-09-03T05:11:22;17.40;62.40
2539;DHT22;1280;49.760;9.664;2022-09-03T05:13:51;17.40;62.50
2539;DHT22;1280;49.760;9.664;2022-09-03T05:16:22;17.40;62.60
2539;DHT22;1280;49.760;9.664;2022-09-03T05:18:51;17.40;62.60
2539;DHT22;1280;49.760;9.664;2022-09-03T05:21:22;17.40;62.60
2539;DHT22;1280;49.760;9.664;2022-09-03T05:23:51;17.40;62.70
2539;DHT22;1280;49.760;9.664;2022-09-03T05:26:20;17.40;62.70
2539;DHT22;1280;49.760;9.664;2022-09-03T05:28:52;17.30;62.70
2539;DHT22;1280;49.760;9.664;2022-09-03T05:31:22;17.30;62.80
2539;DHT22;1280;49.760;9.664;2022-09-03T05:33:53;17.30;62.80
2539;DHT22;1280;49.760;9.664;2022-09-03T05:36:26;17.40;62.80
2539;DHT22;1280;49.760;9.664;2022-09-03T05:38:54;17.40;62.80
2539;DHT22;1280;49.760;9.664;2022-09-03T05:41:25;17.30;62.90
2539;DHT22;1280;49.760;9.664;2022-09-03T05:43:54;17.30;62.80
2539;DHT22;1280;49.760;9.664;2022-09-03T05:46:26;17.30;62.90
2539;DHT22;1280;49.760;9.664;2022-09-03T05:48:57;17.30;63.00
2539;DHT22;1280;49.760;9.664;2022-09-03T05:51:28;17.30;63.00
2539;DHT22;1280;49.760;9.664;2022-09-03T05:53:56;17.30;63.20
2539;DHT22;1280;49.760;9.664;2022-09-03T05:56:27;17.30;63.10
2539;DHT22;1280;49.760;9.664;2022-09-03T05:58:57;17.30;63.20
2539;DHT22;1280;49.760;9.664;2022-09-03T06:01:27;17.40;63.30
2539;DHT22;1280;49.760;9.664;2022-09-03T06:03:58;17.40;63.20
2539;DHT22;1280;49.760;9.664;2022-09-03T06:06:28;17.40;63.20
2539;DHT22;1280;49.760;9.664;2022-09-03T06:08:58;17.40;63.20
2539;DHT22;1280;49.760;9.664;2022-09-03T06:11:29;17.40;63.20
2539;DHT22;1280;49.760;9.664;2022-09-03T06:13:58;17.40;63.30
2539;DHT22;1280;49.760;9.664;2022-09-03T06:16:28;17.50;63.20
2539;DHT22;1280;49.760;9.664;2022-09-03T06:18:58;17.50;63.30
2539;DHT22;1280;49.760;9.664;2022-09-03T06:21:28;17.50;63.30
2539;DHT22;1280;49.760;9.664;2022-09-03T06:23:57;17.50;63.30
2539;DHT22;1280;49.760;9.664;2022-09-03T06:26:26;17.50;63.30
2539;DHT22;1280;49.760;9.664;2022-09-03T06:28:56;17.50;63.30
2539;DHT22;1280;49.760;9.664;2022-09-03T06:31:24;17.50;63.30
2539;DHT22;1280;49.760;9.664;2022-09-03T06:33:52;17.50;63.30
2539;DHT22;1280;49.760;9.664;2022-09-03T06:36:27;17.50;63.40
2539;DHT22;1280;49.760;9.664;2022-09-03T06:38:56;17.50;63.40
2539;DHT22;1280;49.760;9.664;2022-09-03T06:41:26;17.50;63.40
2539;DHT22;1280;49.760;9.664;2022-09-03T06:43:59;17.50;63.40
2539;DHT22;1280;49.760;9.664;2022-09-03T06:46:29;17.60;63.50
2539;DHT22;1280;49.760;9.664;2022-09-03T06:48:57;17.60;63.50
2539;DHT22;1280;49.760;9.664;2022-09-03T06:51:28;17.70;63.40
2539;DHT22;1280;49.760;9.664;2022-09-03T06:54:00;17.70;63.40
2539;DHT22;1280;49.760;9.664;2022-09-03T06:56:28;17.70;63.40
2539;DHT22;1280;49.760;9.664;2022-09-03T06:59:06;17.80;63.50
2539;DHT22;1280;49.760;9.664;2022-09-03T07:01:35;17.90;63.50
2539;DHT22;1280;49.760;9.664;2022-09-03T07:04:10;17.90;63.40
2539;DHT22;1280;49.760;9.664;2022-09-03T07:06:40;18.00;63.40
2539;DHT22;1280;49.760;9.664;2022-09-03T07:09:11;18.10;63.30
2539;DHT22;1280;49.760;9.664;2022-09-03T07:11:41;18.20;63.20
2539;DHT22;1280;49.760;9.664;2022-09-03T07:14:15;18.30;63.10
2539;DHT22;1280;49.760;9.664;2022-09-03T07:16:44;18.30;63.10
2539;DHT22;1280;49.760;9.664;2022-09-03T07:19:13;18.40;63.00
2539;DHT22;1280;49.760;9.664;2022-09-03T07:21:42;18.40;62.90
2539;DHT22;1280;49.760;9.664;2022-09-03T07:24:16;18.40;62.90
2539;DHT22;1280;49.760;9.664;2022-09-03T07:26:45;18.50;62.80
2539;DHT22;1280;49.760;9.664;2022-09-03T07:29:14;18.50;62.80
2539;DHT22;1280;49.760;9.664;2022-09-03T07:31:46;18.60;62.70
2539;DHT22;1280;49.760;9.664;2022-09-03T07:34:18;18.60;62.60
2539;DHT22;1280;49.760;9.664;2022-09-03T07:36:49;18.60;62.50
2539;DHT22;1280;49.760;9.664;2022-09-03T07:39:18;18.70;62.50
2539;DHT22;1280;49.760;9.664;2022-09-03T07:41:46;18.70;62.60
2539;DHT22;1280;49.760;9.664;2022-09-03T07:44:16;18.80;62.50
2539;DHT22;1280;49.760;9.664;2022-09-03T07:46:46;18.90;62.50
2539;DHT22;1280;49.760;9.664;2022-09-03T07:49:17;19.00;62.40
2539;DHT22;1280;49.760;9.664;2022-09-03T07:51:46;19.10;62.30
2539;DHT22;1280;49.760;9.664;2022-09-03T07:54:17;19.10;62.30
2539;DHT22;1280;49.760;9.664;2022-09-03T07:56:47;19.20;62.20
2539;DHT22;1280;49.760;9.664;2022-09-03T07:59:15;19.20;62.20
2539;DHT22;1280;49.760;9.664;2022-09-03T08:01:43;19.30;62.00
2539;DHT22;1280;49.760;9.664;2022-09-03T08:04:11;19.40;61.90
2539;DHT22;1280;49.760;9.664;2022-09-03T08:06:39;19.40;61.80
2539;DHT22;1280;49.760;9.664;2022-09-03T08:09:10;19.40;61.80
2539;DHT22;1280;49.760;9.664;2022-09-03T08:11:42;19.50;61.80
2539;DHT22;1280;49.760;9.664;2022-09-03T08:14:11;19.60;61.80
2539;DHT22;1280;49.760;9.664;2022-09-03T08:16:42;19.60;61.80
2539;DHT22;1280;49.760;9.664;2022-09-03T08:19:11;19.70;61.60
2539;DHT22;1280;49.760;9.664;2022-09-03T08:21:40;19.70;61.50
2539;DHT22;1280;49.760;9.664;2022-09-03T08:24:09;19.80;61.40
2539;DHT22;1280;49.760;9.664;2022-09-03T08:26:39;19.80;61.40
2539;DHT22;1280;49.760;9.664;2022-09-03T08:29:14;19.90;61.30
2539;DHT22;1280;49.760;9.664;2022-09-03T08:31:42;19.90;61.30
2539;DHT22;1280;49.760;9.664;2022-09-03T08:34:11;20.00;61.30
2539;DHT22;1280;49.760;9.664;2022-09-03T08:36:40;20.10;61.30
2539;DHT22;1280;49.760;9.664;2022-09-03T08:39:09;20.10;61.30
2539;DHT22;1280;49.760;9.664;2022-09-03T08:42:15;20.30;61.20
2539;DHT22;1280;49.760;9.664;2022-09-03T08:44:49;20.40;61.10
2539;DHT22;1280;49.760;9.664;2022-09-03T08:47:22;20.50;61.00
2539;DHT22;1280;49.760;9.664;2022-09-03T08:49:55;20.50;60.80
2539;DHT22;1280;49.760;9.664;2022-09-03T08:52:28;20.60;60.70
2539;DHT22;1280;49.760;9.664;2022-09-03T08:55:05;20.60;60.60
2539;DHT22;1280;49.760;9.664;2022-09-03T08:57:40;20.60;60.30
2539;DHT22;1280;49.760;9.664;2022-09-03T09:00:12;20.60;60.30
2539;DHT22;1280;49.760;9.664;2022-09-03T09:02:50;20.60;60.30
2539;DHT22;1280;49.760;9.664;2022-09-03T09:05:24;20.60;60.30
2539;DHT22;1280;49.760;9.664;2022-09-03T09:08:03;20.60;60.30
2539;DHT22;1280;49.760;9.664;2022-09-03T09:10:40;20.70;60.30
2539;DHT22;1280;49.760;9.664;2022-09-03T09:13:18;20.70;60.20
2539;DHT22;1280;49.760;9.664;2022-09-03T09:15:55;20.80;60.30
2539;DHT22;1280;49.760;9.664;2022-09-03T09:18:33;20.90;60.20
2539;DHT22;1280;49.760;9.664;2022-09-03T09:21:09;20.90;60.00
2539;DHT22;1280;49.760;9.664;2022-09-03T09:23:47;20.90;59.90
2539;DHT22;1280;49.760;9.664;2022-09-03T09:26:17;20.90;59.80
2539;DHT22;1280;49.760;9.664;2022-09-03T09:28:54;20.90;59.80
2539;DHT22;1280;49.760;9.664;2022-09-03T09:31:24;20.90;59.90
2539;DHT22;1280;49.760;9.664;2022-09-03T09:33:53;21.00;59.80
2539;DHT22;1280;49.760;9.664;2022-09-03T09:36:21;21.00;59.80
2539;DHT22;1280;49.760;9.664;2022-09-03T09:38:49;21.00;59.80
2539;DHT22;1280;49.760;9.664;2022-09-03T09:41:20;21.00;59.80
2539;DHT22;1280;49.760;9.664;2022-09-03T09:43:59;21.10;59.90
2539;DHT22;1280;49.760;9.664;2022-09-03T09:46:34;21.20;59.90
2539;DHT22;1280;49.760;9.664;2022-09-03T09:49:28;21.20;59.80
2539;DHT22;1280;49.760;9.664;2022-09-03T09:52:00;21.30;59.70
2539;DHT22;1280;49.760;9.664;2022-09-03T09:54:28;21.30;59.70
2539;DHT22;1280;49.760;9.664;2022-09-03T09:57:01;21.40;59.70
2539;DHT22;1280;49.760;9.664;2022-09-03T09:59:29;21.40;59.60
2539;DHT22;1280;49.760;9.664;2022-09-03T10:02:10;21.50;59.50
2539;DHT22;1280;49.760;9.664;2022-09-03T10:04:48;21.50;59.50
2539;DHT22;1280;49.760;9.664;2022-09-03T10:07:25;21.50;59.40
2539;DHT22;1280;49.760;9.664;2022-09-03T10:10:03;21.60;59.40
2539;DHT22;1280;49.760;9.664;2022-09-03T10:12:35;21.60;59.40
2539;DHT22;1280;49.760;9.664;2022-09-03T10:15:14;21.60;59.30
2539;DHT22;1280;49.760;9.664;2022-09-03T10:17:54;21.70;59.20
2539;DHT22;1280;49.760;9.664;2022-09-03T10:20:30;21.70;59.20
2539;DHT22;1280;49.760;9.664;2022-09-03T10:23:09;21.70;59.10
2539;DHT22;1280;49.760;9.664;2022-09-03T10:25:44;21.70;59.20
2539;DHT22;1280;49.760;9.664;2022-09-03T10:28:16;21.70;59.20
2539;DHT22;1280;49.760;9.664;2022-09-03T10:31:01;21.80;59.20
2539;DHT22;1280;49.760;9.664;2022-09-03T10:33:38;21.80;59.10
2539;DHT22;1280;49.760;9.664;2022-09-03T10:36:12;21.80;59.10
2539;DHT22;1280;49.760;9.664;2022-09-03T10:38:44;21.80;59.00
2539;DHT22;1280;49.760;9.664;2022-09-03T10:41:26;21.80;59.10
2539;DHT22;1280;49.760;9.664;2022-09-03T10:44:14;21.90;59.20
2539;DHT22;1280;49.760;9.664;2022-09-03T10:46:52;21.80;59.20
2539;DHT22;1280;49.760;9.664;2022-09-03T10:49:37;21.80;59.40
2539;DHT22;1280;49.760;9.664;2022-09-03T10:52:15;21.80;59.50
2539;DHT22;1280;49.760;9.664;2022-09-03T10:54:54;21.80;59.50
2539;DHT22;1280;49.760;9.664;2022-09-03T10:57:31;21.80;59.50
2539;DHT22;1280;49.760;9.664;2022-09-03T11:00:06;21.80;59.50
2539;DHT22;1280;49.760;9.664;2022-09-03T11:03:01;21.80;59.50
2539;DHT22;1280;49.760;9.664;2022-09-03T11:05:37;21.90;59.40
2539;DHT22;1280;49.760;9.664;2022-09-03T11:08:10;21.80;59.40
2539;DHT22;1280;49.760;9.664;2022-09-03T11:10:41;21.80;59.40
2539;DHT22;1280;49.760;9.664;2022-09-03T11:13:14;21.80;59.60
2539;DHT22;1280;49.760;9.664;2022-09-03T11:15:49;21.80;59.90
2539;DHT22;1280;49.760;9.664;2022-09-03T11:18:22;21.80;60.10
2539;DHT22;1280;49.760;9.664;2022-09-03T11:20:55;21.80;60.40
2539;DHT22;1280;49.760;9.664;2022-09-03T11:23:37;21.70;60.70
2539;DHT22;1280;49.760;9.664;2022-09-03T11:26:10;21.60;61.50
2539;DHT22;1280;49.760;9.664;2022-09-03T11:28:42;21.50;62.40
2539;DHT22;1280;49.760;9.664;2022-09-03T11:31:24;21.40;63.10
2539;DHT22;1280;49.760;9.664;2022-09-03T11:33:59;21.40;63.70
2539;DHT22;1280;49.760;9.664;2022-09-03T11:36:36;21.40;64.10
2539;DHT22;1280;49.760;9.664;2022-09-03T11:39:19;21.30;64.60
2539;DHT22;1280;49.760;9.664;2022-09-03T11:41:58;21.30;65.20
2539;DHT22;1280;49.760;9.664;2022-09-03T11:44:35;21.30;65.70
2539;DHT22;1280;49.760;9.664;2022-09-03T11:47:21;21.30;66.30
2539;DHT22;1280;49.760;9.664;2022-09-03T11:49:51;21.30;66.60
2539;DHT22;1280;49.760;9.664;2022-09-03T11:52:28;21.30;66.90
2539;DHT22;1280;49.760;9.664;2022-09-03T11:54:57;21.40;67.50
2539;DHT22;1280;49.760;9.664;2022-09-03T11:57:28;21.40;68.00
2539;DHT22;1280;49.760;9.664;2022-09-03T12:00:07;21.50;68.40
2539;DHT22;1280;49.760;9.664;2022-09-03T12:02:43;21.50;69.00
2539;DHT22;1280;49.760;9.664;2022-09-03T12:05:19;21.60;68.50
2539;DHT22;1280;49.760;9.664;2022-09-03T12:08:19;21.50;68.40
2539;DHT22;1280;49.760;9.664;2022-09-03T12:10:55;21.60;68.40
2539;DHT22;1280;49.760;9.664;2022-09-03T12:13:37;21.60;68.40
2539;DHT22;1280;49.760;9.664;2022-09-03T12:19:10;21.50;68.70
2539;DHT22;1280;49.760;9.664;2022-09-03T12:21:47;21.50;68.80
2539;DHT22;1280;49.760;9.664;2022-09-03T12:24:18;21.50;69.10
2539;DHT22;1280;49.760;9.664;2022-09-03T12:26:49;21.50;69.40
2539;DHT22;1280;49.760;9.664;2022-09-03T12:29:22;21.50;69.50
2539;DHT22;1280;49.760;9.664;2022-09-03T12:31:54;21.50;69.80
2539;DHT22;1280;49.760;9.664;2022-09-03T12:34:23;21.50;69.60
2539;DHT22;1280;49.760;9.664;2022-09-03T12:36:53;21.50;69.60
2539;DHT22;1280;49.760;9.664;2022-09-03T12:39:24;21.60;69.70
2539;DHT22;1280;49.760;9.664;2022-09-03T12:42:18;21.60;69.60
2539;DHT22;1280;49.760;9.664;2022-09-03T12:44:47;21.70;69.30
2539;DHT22;1280;49.760;9.664;2022-09-03T12:47:17;21.70;69.10
2539;DHT22;1280;49.760;9.664;2022-09-03T12:50:05;21.80;69.00
2539;DHT22;1280;49.760;9.664;2022-09-03T12:52:36;21.80;68.80
2539;DHT22;1280;49.760;9.664;2022-09-03T12:55:23;21.80;68.70
2539;DHT22;1280;49.760;9.664;2022-09-03T12:58:02;21.90;68.70
2539;DHT22;1280;49.760;9.664;2022-09-03T13:00:32;21.90;68.80
2539;DHT22;1280;49.760;9.664;2022-09-03T13:03:04;22.00;68.60
2539;DHT22;1280;49.760;9.664;2022-09-03T13:05:41;22.00;68.50
2539;DHT22;1280;49.760;9.664;2022-09-03T13:08:16;22.10;68.40
2539;DHT22;1280;49.760;9.664;2022-09-03T13:10:50;22.10;68.30
2539;DHT22;1280;49.760;9.664;2022-09-03T13:13:22;22.10;68.10
2539;DHT22;1280;49.760;9.664;2022-09-03T13:18:57;22.20;68.00
2539;DHT22;1280;49.760;9.664;2022-09-03T13:21:35;22.20;67.90
2539;DHT22;1280;49.760;9.664;2022-09-03T13:24:22;22.20;67.90
2539;DHT22;1280;49.760;9.664;2022-09-03T13:27:02;22.30;67.60
2539;DHT22;1280;49.760;9.664;2022-09-03T13:29:38;22.40;67.40
2539;DHT22;1280;49.760;9.664;2022-09-03T13:32:16;22.40;67.30
2539;DHT22;1280;49.760;9.664;2022-09-03T13:34:53;22.50;67.20
2539;DHT22;1280;49.760;9.664;2022-09-03T13:37:27;22.50;66.90
2539;DHT22;1280;49.760;9.664;2022-09-03T13:40:02;22.50;66.70
2539;DHT22;1280;49.760;9.664;2022-09-03T13:42:38;22.50;66.50
2539;DHT22;1280;49.760;9.664;2022-09-03T13:45:15;22.50;66.40
2539;DHT22;1280;49.760;9.664;2022-09-03T13:47:50;22.60;66.30
2539;DHT22;1280;49.760;9.664;2022-09-03T13:50:41;22.60;66.20
2539;DHT22;1280;49.760;9.664;2022-09-03T13:53:16;22.60;66.10
2539;DHT22;1280;49.760;9.664;2022-09-03T13:55:52;22.70;65.80
2539;DHT22;1280;49.760;9.664;2022-09-03T13:58:25;22.70;65.70
2539;DHT22;1280;49.760;9.664;2022-09-03T14:01:07;22.80;65.60
2539;DHT22;1280;49.760;9.664;2022-09-03T14:03:43;22.80;65.60
2539;DHT22;1280;49.760;9.664;2022-09-03T14:06:23;22.80;65.50
2539;DHT22;1280;49.760;9.664;2022-09-03T14:09:03;22.90;65.30
2539;DHT22;1280;49.760;9.664;2022-09-03T14:11:40;22.90;65.10
2539;DHT22;1280;49.760;9.664;2022-09-03T14:14:20;23.00;65.00
2539;DHT22;1280;49.760;9.664;2022-09-03T14:17:01;23.00;64.70
2539;DHT22;1280;49.760;9.664;2022-09-03T14:19:36;23.00;64.50
2539;DHT22;1280;49.760;9.664;2022-09-03T14:22:10;23.00;64.40
2539;DHT22;1280;49.760;9.664;2022-09-03T14:24:46;23.00;64.30
2539;DHT22;1280;49.760;9.664;2022-09-03T14:27:23;23.10;64.40
2539;DHT22;1280;49.760;9.664;2022-09-03T14:29:58;23.20;64.30
2539;DHT22;1280;49.760;9.664;2022-09-03T14:32:29;23.20;64.20
2539;DHT22;1280;49.760;9.664;2022-09-03T14:35:20;23.20;64.00
2539;DHT22;1280;49.760;9.664;2022-09-03T14:41:03;23.30;63.80
2539;DHT22;1280;49.760;9.664;2022-09-03T14:46:54;23.30;63.60
2539;DHT22;1280;49.760;9.664;2022-09-03T14:49:44;23.30;63.50
2539;DHT22;1280;49.760;9.664;2022-09-03T14:52:27;23.30;63.60
2539;DHT22;1280;49.760;9.664;2022-09-03T14:55:18;23.40;63.70
2539;DHT22;1280;49.760;9.664;2022-09-03T14:58:13;23.40;63.70
2539;DHT22;1280;49.760;9.664;2022-09-03T15:00:52;23.50;63.70
2539;DHT22;1280;49.760;9.664;2022-09-03T15:03:52;23.50;63.60
2539;DHT22;1280;49.760;9.664;2022-09-03T15:06:31;23.60;63.40
2539;DHT22;1280;49.760;9.664;2022-09-03T15:09:16;23.60;63.40
2539;DHT22;1280;49.760;9.664;2022-09-03T15:11:49;23.60;63.40
2539;DHT22;1280;49.760;9.664;2022-09-03T15:14:23;23.60;63.30
2539;DHT22;1280;49.760;9.664;2022-09-03T15:16:58;23.60;63.20
2539;DHT22;1280;49.760;9.664;2022-09-03T15:19:46;23.60;63.20
2539;DHT22;1280;49.760;9.664;2022-09-03T15:22:27;23.50;63.30
2539;DHT22;1280;49.760;9.664;2022-09-03T15:25:09;23.50;63.40
2539;DHT22;1280;49.760;9.664;2022-09-03T15:30:34;23.50;63.70
2539;DHT22;1280;49.760;9.664;2022-09-03T15:33:12;23.50;63.80
2539;DHT22;1280;49.760;9.664;2022-09-03T15:36:00;23.60;63.90
2539;DHT22;1280;49.760;9.664;2022-09-03T15:38:39;23.60;63.80
2539;DHT22;1280;49.760;9.664;2022-09-03T15:41:19;23.60;63.80
2539;DHT22;1280;49.760;9.664;2022-09-03T15:43:49;23.70;63.80
2539;DHT22;1280;49.760;9.664;2022-09-03T15:46:37;23.60;63.70
2539;DHT22;1280;49.760;9.664;2022-09-03T15:49:15;23.60;63.80
2539;DHT22;1280;49.760;9.664;2022-09-03T15:52:02;23.60;63.90
2539;DHT22;1280;49.760;9.664;2022-09-03T15:54:38;23.60;64.00
2539;DHT22;1280;49.760;9.664;2022-09-03T15:57:12;23.60;64.00
2539;DHT22;1280;49.760;9.664;2022-09-03T15:59:50;23.60;64.00
2539;DHT22;1280;49.760;9.664;2022-09-03T16:02:22;23.60;64.00
2539;DHT22;1280;49.760;9.664;2022-09-03T16:05:02;23.60;64.10
2539;DHT22;1280;49.760;9.664;2022-09-03T16:07:48;23.50;64.10
2539;DHT22;1280;49.760;9.664;2022-09-03T16:10:34;23.50;64.10
2539;DHT22;1280;49.760;9.664;2022-09-03T16:13:08;23.50;64.10
2539;DHT22;1280;49.760;9.664;2022-09-03T16:15:50;23.50;64.20
2539;DHT22;1280;49.760;9.664;2022-09-03T16:18:27;23.50;64.20
2539;DHT22;1280;49.760;9.664;2022-09-03T16:21:01;23.50;64.10
2539;DHT22;1280;49.760;9.664;2022-09-03T16:23:37;23.40;64.10
2539;DHT22;1280;49.760;9.664;2022-09-03T16:26:12;23.40;64.10
2539;DHT22;1280;49.760;9.664;2022-09-03T16:28:45;23.40;64.10
2539;DHT22;1280;49.760;9.664;2022-09-03T16:31:20;23.40;64.20
2539;DHT22;1280;49.760;9.664;2022-09-03T16:33:57;23.30;64.30
2539;DHT22;1280;49.760;9.664;2022-09-03T16:36:36;23.30;64.40
2539;DHT22;1280;49.760;9.664;2022-09-03T16:39:15;23.30;64.40
2539;DHT22;1280;49.760;9.664;2022-09-03T16:41:49;23.40;64.60
2539;DHT22;1280;49.760;9.664;2022-09-03T16:44:26;23.50;64.80
2539;DHT22;1280;49.760;9.664;2022-09-03T16:47:01;23.70;64.80
2539;DHT22;1280;49.760;9.664;2022-09-03T16:49:44;23.80;64.60
2539;DHT22;1280;49.760;9.664;2022-09-03T16:52:24;23.90;64.50
2539;DHT22;1280;49.760;9.664;2022-09-03T16:55:16;24.00;64.20
2539;DHT22;1280;49.760;9.664;2022-09-03T16:57:57;24.00;63.90
2539;DHT22;1280;49.760;9.664;2022-09-03T17:00:37;24.00;63.60
2539;DHT22;1280;49.760;9.664;2022-09-03T17:03:21;23.80;63.60
2539;DHT22;1280;49.760;9.664;2022-09-03T17:06:26;23.70;63.60